createdAt,value
2023-05-13T00:00:09.475Z,10.13
2023-05-13T00:02:38.260Z,10.88
2023-05-13T00:05:09.665Z,10.38
2023-05-13T00:07:38.571Z,11.48
2023-05-13T00:10:08.542Z,11.60
2023-05-13T00:12:37.343Z,10.63
2023-05-13T00:15:07.367Z,11.50
2023-05-13T00:17:36.148Z,10.82
2023-05-13T00:20:06.961Z,11.38
2023-05-13T00:22:37.150Z,12.95
2023-05-13T00:25:06.794Z,12.15
2023-05-13T00:27:35.568Z,12.07
2023-05-13T00:30:05.723Z,12.52
2023-05-13T00:32:34.529Z,12.10
2023-05-13T00:35:04.000Z,12.45
2023-05-13T00:37:32.910Z,12.05
2023-05-13T00:40:03.604Z,11.93
2023-05-13T00:42:32.312Z,10.85
2023-05-13T00:45:01.159Z,10.48
2023-05-13T00:47:29.844Z,10.90
2023-05-13T00:49:59.693Z,11.32
2023-05-13T00:52:29.020Z,11.52
2023-05-13T00:54:57.849Z,11.27
2023-05-13T00:57:28.080Z,11.90
2023-05-13T00:59:57.140Z,12.02
2023-05-13T01:02:36.194Z,11.85
2023-05-13T01:05:20.258Z,11.95
2023-05-13T01:08:05.077Z,10.90
2023-05-13T01:10:49.942Z,11.65
2023-05-13T01:13:29.868Z,12.10
2023-05-13T01:16:05.167Z,12.73
2023-05-13T01:18:39.329Z,11.35
2023-05-13T01:21:10.801Z,12.27
2023-05-13T01:23:41.062Z,11.15
2023-05-13T01:26:09.866Z,12.40
2023-05-13T01:28:38.710Z,13.02
2023-05-13T01:31:10.926Z,10.93
2023-05-13T01:33:42.063Z,11.40
2023-05-13T01:36:11.861Z,11.05
2023-05-13T01:38:43.978Z,10.15
2023-05-13T01:41:12.826Z,10.88
2023-05-13T01:43:41.691Z,10.75
2023-05-13T01:46:14.367Z,10.52
2023-05-13T01:48:43.222Z,12.00
2023-05-13T01:51:12.011Z,11.57
2023-05-13T01:53:42.248Z,11.60
2023-05-13T01:56:11.603Z,11.95
2023-05-13T01:58:40.410Z,11.93
2023-05-13T02:01:09.097Z,10.98
2023-05-13T02:03:38.916Z,11.15
2023-05-13T02:06:08.363Z,11.25
2023-05-13T02:08:37.070Z,11.82
2023-05-13T02:11:07.333Z,10.40
2023-05-13T02:13:36.202Z,11.80
2023-05-13T02:16:05.241Z,10.50
2023-05-13T02:18:34.061Z,10.68
2023-05-13T02:21:03.079Z,11.55
2023-05-13T02:23:34.712Z,10.43
2023-05-13T02:26:03.498Z,10.23
2023-05-13T02:28:33.667Z,10.90
2023-05-13T02:31:02.402Z,11.27
2023-05-13T02:33:31.231Z,10.38
2023-05-13T02:35:59.913Z,11.10
2023-05-13T02:38:28.656Z,11.23
2023-05-13T02:40:57.443Z,10.75
2023-05-13T02:43:27.609Z,11.10
2023-05-13T02:45:57.914Z,11.48
2023-05-13T02:48:26.654Z,10.57
2023-05-13T02:50:55.465Z,10.27
2023-05-13T02:53:24.453Z,10.55
2023-05-13T02:55:54.455Z,10.50
2023-05-13T02:58:23.183Z,10.93
2023-05-13T03:00:52.378Z,9.90
2023-05-13T03:03:23.033Z,10.90
2023-05-13T03:05:51.916Z,10.25
2023-05-13T03:08:20.644Z,10.40
2023-05-13T03:10:49.628Z,10.98
2023-05-13T03:13:18.488Z,11.52
2023-05-13T03:15:47.325Z,10.55
2023-05-13T03:18:16.203Z,10.55
2023-05-13T03:20:46.568Z,11.35
2023-05-13T03:23:15.457Z,10.40
2023-05-13T03:25:44.450Z,10.15
2023-05-13T03:28:13.328Z,11.10
2023-05-13T03:30:42.724Z,10.77
2023-05-13T03:33:11.957Z,11.20
2023-05-13T03:35:40.856Z,15.45
2023-05-13T03:38:11.060Z,13.13
2023-05-13T03:40:40.020Z,13.88
2023-05-13T03:43:08.873Z,12.10
2023-05-13T03:45:37.617Z,12.45
2023-05-13T03:48:07.189Z,11.98
2023-05-13T03:50:36.082Z,11.60
2023-05-13T03:53:05.456Z,11.55
2023-05-13T03:55:35.825Z,10.68
2023-05-13T03:58:13.840Z,11.05
2023-05-13T04:00:46.800Z,11.30
2023-05-13T04:03:17.455Z,12.43
2023-05-13T04:05:48.375Z,11.18
2023-05-13T04:08:17.449Z,9.95
2023-05-13T04:10:48.044Z,10.15
2023-05-13T04:13:16.864Z,10.43
2023-05-13T04:15:45.627Z,10.93
2023-05-13T04:18:14.313Z,10.57
2023-05-13T04:20:43.140Z,10.10
2023-05-13T04:23:12.117Z,11.60
2023-05-13T04:25:43.400Z,10.80
2023-05-13T04:28:13.520Z,10.63
2023-05-13T04:30:42.292Z,9.88
2023-05-13T04:33:11.064Z,9.40
2023-05-13T04:35:39.991Z,11.32
2023-05-13T04:38:09.373Z,10.48
2023-05-13T04:40:38.304Z,10.65
2023-05-13T04:43:07.231Z,11.38
2023-05-13T04:45:38.454Z,10.82
2023-05-13T04:48:08.260Z,10.93
2023-05-13T04:50:37.083Z,10.68
2023-05-13T04:53:06.035Z,12.43
2023-05-13T04:55:35.204Z,11.30
2023-05-13T04:58:04.274Z,11.85
2023-05-13T05:00:33.483Z,11.65
2023-05-13T05:03:03.757Z,12.18
2023-05-13T05:05:32.493Z,11.18
2023-05-13T05:08:04.861Z,10.90
2023-05-13T05:10:33.671Z,11.73
2023-05-13T05:13:02.458Z,12.30
2023-05-13T05:15:31.296Z,12.40
2023-05-13T05:18:00.252Z,11.73
2023-05-13T05:20:30.397Z,11.68
2023-05-13T05:22:59.965Z,12.52
2023-05-13T05:25:28.740Z,12.15
2023-05-13T05:27:58.437Z,11.80
2023-05-13T05:30:27.614Z,12.38
2023-05-13T05:32:56.716Z,12.38
2023-05-13T05:35:25.791Z,11.88
2023-05-13T05:37:55.898Z,11.85
2023-05-13T05:40:24.724Z,12.95
2023-05-13T05:42:53.472Z,12.15
2023-05-13T05:45:23.049Z,12.00
2023-05-13T05:47:54.342Z,12.48
2023-05-13T05:50:23.769Z,12.38
2023-05-13T05:52:52.697Z,12.20
2023-05-13T05:55:23.428Z,11.90
2023-05-13T05:57:52.651Z,11.80
2023-05-13T06:00:22.250Z,12.43
2023-05-13T06:02:51.322Z,11.30
2023-05-13T06:05:20.214Z,11.48
2023-05-13T06:07:49.002Z,10.77
2023-05-13T06:10:17.935Z,11.80
2023-05-13T06:12:48.057Z,11.07
2023-05-13T06:15:16.796Z,9.32
2023-05-13T06:17:45.551Z,10.07
2023-05-13T06:20:14.719Z,11.32
2023-05-13T06:22:43.565Z,10.32
2023-05-13T06:25:12.718Z,9.82
2023-05-13T06:27:41.436Z,10.00
2023-05-13T06:30:12.300Z,10.40
2023-05-13T06:32:50.185Z,10.95
2023-05-13T06:35:26.516Z,10.55
2023-05-13T06:37:55.984Z,10.55
2023-05-13T06:40:24.837Z,10.82
2023-05-13T06:42:53.651Z,9.90
2023-05-13T06:45:26.039Z,9.82
2023-05-13T06:47:55.356Z,9.55
2023-05-13T06:50:24.426Z,9.70
2023-05-13T06:52:53.271Z,10.15
2023-05-13T06:55:22.040Z,10.20
2023-05-13T06:57:50.808Z,9.77
2023-05-13T07:00:20.494Z,9.70
2023-05-13T07:02:51.122Z,9.75
2023-05-13T07:05:19.877Z,9.98
2023-05-13T07:07:48.712Z,12.20
2023-05-13T07:10:17.716Z,9.65
2023-05-13T07:12:46.494Z,9.48
2023-05-13T07:15:15.182Z,12.80
2023-05-13T07:17:44.080Z,9.55
2023-05-13T07:20:14.472Z,9.38
2023-05-13T07:22:43.189Z,9.18
2023-05-13T07:25:12.598Z,9.63
2023-05-13T07:27:41.377Z,11.00
2023-05-13T07:30:11.739Z,10.20
2023-05-13T07:32:40.790Z,10.55
2023-05-13T07:35:11.037Z,9.43
2023-05-13T07:37:41.302Z,8.70
2023-05-13T07:40:11.284Z,9.07
2023-05-13T07:42:40.252Z,8.82
2023-05-13T07:45:10.594Z,9.45
2023-05-13T07:47:40.262Z,10.07
2023-05-13T07:50:10.875Z,10.63
2023-05-13T07:52:41.440Z,9.48
2023-05-13T07:55:11.674Z,11.13
2023-05-13T07:57:40.640Z,28.35
2023-05-13T08:00:11.055Z,14.40
2023-05-13T08:02:40.966Z,9.93
2023-05-13T08:05:10.947Z,10.10
2023-05-13T08:07:41.508Z,9.30
2023-05-13T08:10:10.889Z,9.73
2023-05-13T08:12:40.478Z,15.45
2023-05-13T08:15:12.070Z,8.82
2023-05-13T08:17:40.981Z,8.52
2023-05-13T08:20:11.493Z,9.00
2023-05-13T08:22:41.745Z,11.30
2023-05-13T08:25:12.391Z,11.93
2023-05-13T08:27:41.272Z,8.85
2023-05-13T08:30:11.079Z,9.77
2023-05-13T08:32:39.781Z,8.57
2023-05-13T08:35:09.678Z,7.32
2023-05-13T08:37:38.558Z,7.43
2023-05-13T08:40:12.209Z,6.65
2023-05-13T08:42:46.613Z,7.85
2023-05-13T08:45:16.640Z,10.32
2023-05-13T08:47:57.047Z,12.00
2023-05-13T08:50:27.093Z,6.78
2023-05-13T08:52:56.668Z,9.25
2023-05-13T08:55:27.820Z,18.38
2023-05-13T08:57:56.911Z,6.72
2023-05-13T09:00:26.467Z,7.05
2023-05-13T09:02:55.208Z,6.97
2023-05-13T09:05:25.319Z,6.63
2023-05-13T09:07:55.906Z,7.40
2023-05-13T09:10:26.176Z,7.72
2023-05-13T09:12:56.533Z,9.50
2023-05-13T09:15:27.833Z,7.65
2023-05-13T09:18:00.310Z,7.90
2023-05-13T09:20:30.166Z,7.63
2023-05-13T09:23:01.643Z,7.30
2023-05-13T09:25:32.493Z,6.18
2023-05-13T09:28:04.179Z,6.38
2023-05-13T09:30:36.018Z,6.10
2023-05-13T09:33:10.086Z,6.95
2023-05-13T09:35:41.708Z,6.60
2023-05-13T09:38:19.393Z,7.18
2023-05-13T09:40:57.523Z,7.07
2023-05-13T09:43:29.047Z,5.90
2023-05-13T09:46:01.878Z,6.18
2023-05-13T09:48:33.337Z,6.20
2023-05-13T09:51:02.742Z,9.65
2023-05-13T09:53:32.781Z,6.35
2023-05-13T09:56:02.909Z,5.93
2023-05-13T09:58:31.551Z,5.97
2023-05-13T10:01:00.713Z,6.43
2023-05-13T10:03:31.992Z,5.95
2023-05-13T10:06:03.653Z,6.97
2023-05-13T10:08:33.146Z,7.07
2023-05-13T10:11:04.236Z,7.00
2023-05-13T10:13:34.898Z,7.55
2023-05-13T10:16:04.631Z,7.55
2023-05-13T10:18:33.634Z,6.85
2023-05-13T10:21:04.640Z,7.63
2023-05-13T10:23:36.553Z,7.95
2023-05-13T10:26:09.177Z,7.30
2023-05-13T10:28:39.602Z,10.60
2023-05-13T10:31:08.246Z,15.27
2023-05-13T10:33:37.126Z,16.50
2023-05-13T10:36:36.680Z,17.00
2023-05-13T10:39:34.879Z,18.13
2023-05-13T10:42:42.812Z,6.85
2023-05-13T10:45:12.580Z,7.50
2023-05-13T10:47:41.377Z,8.73
2023-05-13T10:50:25.517Z,7.80
2023-05-13T10:52:58.755Z,8.48
2023-05-13T10:55:29.406Z,8.10
2023-05-13T10:58:12.973Z,7.15
2023-05-13T11:00:43.586Z,8.02
2023-05-13T11:03:30.758Z,8.68
2023-05-13T11:06:17.681Z,9.35
2023-05-13T11:08:48.629Z,10.05
2023-05-13T11:11:33.286Z,8.30
2023-05-13T11:14:20.810Z,7.22
2023-05-13T11:16:55.227Z,7.47
2023-05-13T11:19:28.357Z,7.88
2023-05-13T11:21:59.355Z,8.93
2023-05-13T11:24:28.406Z,8.35
2023-05-13T11:27:00.048Z,10.52
2023-05-13T11:29:35.804Z,10.20
2023-05-13T11:32:07.111Z,11.38
2023-05-13T11:34:36.419Z,11.98
2023-05-13T11:37:11.005Z,12.85
2023-05-13T11:39:42.379Z,12.60
2023-05-13T11:42:12.614Z,13.27
2023-05-13T11:44:48.408Z,13.05
2023-05-13T11:47:27.578Z,12.85
2023-05-13T11:49:57.304Z,13.75
2023-05-13T11:52:26.167Z,15.07
2023-05-13T11:54:56.931Z,12.13
2023-05-13T11:57:27.785Z,13.15
2023-05-13T12:00:00.090Z,12.80
2023-05-13T12:02:31.297Z,12.07
2023-05-13T12:05:04.499Z,14.35
2023-05-13T12:07:34.124Z,13.23
2023-05-13T12:10:05.861Z,11.75
2023-05-13T12:12:41.163Z,15.00
2023-05-13T12:15:14.484Z,13.48
2023-05-13T12:17:44.105Z,14.07
2023-05-13T12:20:15.409Z,14.00
2023-05-13T12:23:00.420Z,12.88
2023-05-13T12:25:51.419Z,14.30
2023-05-13T12:28:21.973Z,11.73
2023-05-13T12:30:57.938Z,10.93
2023-05-13T12:33:28.813Z,10.18
2023-05-13T12:36:20.113Z,10.73
2023-05-13T12:39:01.134Z,10.85
2023-05-13T12:41:32.772Z,11.02
2023-05-13T12:44:03.170Z,11.45
2023-05-13T12:46:33.330Z,10.68
2023-05-13T12:49:04.591Z,10.35
2023-05-13T12:51:33.927Z,9.35
2023-05-13T12:54:02.617Z,10.80
2023-05-13T12:56:31.277Z,11.20
2023-05-13T12:59:00.158Z,10.32
2023-05-13T13:01:28.925Z,11.80
2023-05-13T13:03:59.187Z,13.55
2023-05-13T13:06:28.350Z,12.43
2023-05-13T13:08:57.159Z,11.05
2023-05-13T13:11:25.859Z,10.88
2023-05-13T13:13:54.623Z,11.65
2023-05-13T13:16:23.404Z,13.98
2023-05-13T13:18:54.261Z,10.70
2023-05-13T13:21:25.955Z,9.90
2023-05-13T13:23:54.658Z,10.88
2023-05-13T13:26:24.357Z,10.75
2023-05-13T13:28:52.990Z,11.25
2023-05-13T13:31:21.993Z,10.82
2023-05-13T13:33:50.693Z,12.68
2023-05-13T13:36:19.630Z,12.18
2023-05-13T13:38:49.732Z,11.63
2023-05-13T13:41:18.599Z,9.45
2023-05-13T13:43:47.388Z,10.20
2023-05-13T13:46:16.338Z,10.30
2023-05-13T13:48:45.230Z,10.80
2023-05-13T13:51:14.097Z,10.23
2023-05-13T13:53:42.722Z,8.68
2023-05-13T13:56:12.793Z,8.85
2023-05-13T13:58:41.805Z,9.13
2023-05-13T14:01:10.487Z,10.93
2023-05-13T14:03:39.320Z,9.43
2023-05-13T14:06:08.958Z,10.45
2023-05-13T14:08:37.820Z,9.18
2023-05-13T14:11:06.570Z,8.48
2023-05-13T14:13:36.681Z,10.07
2023-05-13T14:16:06.901Z,11.10
2023-05-13T14:18:35.619Z,10.52
2023-05-13T14:21:04.634Z,12.25
2023-05-13T14:23:33.300Z,12.85
2023-05-13T14:26:02.046Z,12.10
2023-05-13T14:28:30.755Z,12.68
2023-05-13T14:31:01.072Z,13.20
2023-05-13T14:33:29.958Z,15.52
2023-05-13T14:35:58.835Z,13.88
2023-05-13T14:38:27.831Z,10.98
2023-05-13T14:40:56.910Z,12.07
2023-05-13T14:43:25.803Z,11.43
2023-05-13T14:45:54.614Z,11.70
2023-05-13T14:48:24.970Z,11.82
2023-05-13T14:50:53.901Z,10.25
2023-05-13T14:53:22.762Z,11.15
2023-05-13T14:55:52.103Z,11.18
2023-05-13T14:58:21.162Z,12.68
2023-05-13T15:00:50.044Z,13.55
2023-05-13T15:03:18.933Z,15.88
2023-05-13T15:05:50.313Z,15.57
2023-05-13T15:08:19.388Z,14.82
2023-05-13T15:10:48.070Z,13.23
2023-05-13T15:13:16.846Z,13.32
2023-05-13T15:15:45.713Z,13.00
2023-05-13T15:18:14.891Z,11.82
2023-05-13T15:20:45.402Z,11.13
2023-05-13T15:23:15.837Z,10.07
2023-05-13T15:25:44.644Z,11.55
2023-05-13T15:28:13.703Z,12.02
2023-05-13T15:30:42.865Z,12.00
2023-05-13T15:33:11.706Z,11.02
2023-05-13T15:35:41.952Z,10.57
2023-05-13T15:38:11.187Z,12.07
2023-05-13T15:40:41.448Z,13.18
2023-05-13T15:43:10.395Z,12.25
2023-05-13T15:45:40.165Z,11.95
2023-05-13T15:48:09.301Z,11.93
2023-05-13T15:50:38.458Z,12.45
2023-05-13T15:53:07.379Z,11.80
2023-05-13T15:55:37.505Z,12.07
2023-05-13T15:58:07.871Z,11.93
2023-05-13T16:00:36.613Z,11.82
2023-05-13T16:03:05.432Z,12.88
2023-05-13T16:05:36.378Z,12.40
2023-05-13T16:08:05.069Z,11.73
2023-05-13T16:10:35.634Z,13.07
2023-05-13T16:13:04.497Z,12.30
2023-05-13T16:15:35.081Z,14.63
2023-05-13T16:18:04.002Z,14.10
2023-05-13T16:20:32.804Z,16.45
2023-05-13T16:23:01.749Z,16.38
2023-05-13T16:25:30.604Z,13.68
2023-05-13T16:27:59.226Z,19.23
2023-05-13T16:30:27.964Z,13.60
2023-05-13T16:32:58.093Z,13.25
2023-05-13T16:35:26.906Z,12.98
2023-05-13T16:37:55.926Z,13.23
2023-05-13T16:40:25.296Z,13.27
2023-05-13T16:42:54.723Z,13.52
2023-05-13T16:45:25.333Z,13.38
2023-05-13T16:47:54.129Z,13.93
2023-05-13T16:50:24.890Z,12.63
2023-05-13T16:52:54.816Z,14.82
2023-05-13T16:55:25.962Z,12.73
2023-05-13T16:57:54.833Z,15.05
2023-05-13T17:00:23.999Z,16.38
2023-05-13T17:02:52.991Z,15.85
2023-05-13T17:05:23.166Z,16.48
2023-05-13T17:07:54.057Z,14.52
2023-05-13T17:10:23.242Z,14.18
2023-05-13T17:12:52.384Z,15.27
2023-05-13T17:15:21.473Z,13.57
2023-05-13T17:17:50.282Z,14.05
2023-05-13T17:20:19.903Z,13.82
2023-05-13T17:22:50.642Z,14.73
2023-05-13T17:25:19.548Z,14.77
2023-05-13T17:27:48.356Z,15.38
2023-05-13T17:30:18.130Z,14.43
2023-05-13T17:32:46.892Z,14.82
2023-05-13T17:35:15.841Z,14.05
2023-05-13T17:37:44.574Z,14.57
2023-05-13T17:40:15.190Z,13.27
2023-05-13T17:42:44.781Z,14.13
2023-05-13T17:45:13.912Z,14.43
2023-05-13T17:47:42.710Z,15.55
2023-05-13T17:50:14.547Z,14.20
2023-05-13T17:52:43.298Z,14.43
2023-05-13T17:55:13.497Z,14.25
2023-05-13T17:57:42.154Z,13.75
2023-05-13T18:00:12.626Z,14.52
2023-05-13T18:02:41.433Z,16.88
2023-05-13T18:05:11.378Z,16.75
2023-05-13T18:07:40.276Z,16.85
2023-05-13T18:10:10.930Z,18.17
2023-05-13T18:12:41.332Z,23.10
2023-05-13T18:15:10.729Z,17.52
2023-05-13T18:17:39.538Z,18.75
2023-05-13T18:20:10.309Z,18.42
2023-05-13T18:22:38.960Z,17.10
2023-05-13T18:25:09.938Z,16.05
2023-05-13T18:27:38.610Z,15.77
2023-05-13T18:30:10.524Z,15.32
2023-05-13T18:32:39.556Z,16.65
2023-05-13T18:35:09.559Z,22.08
2023-05-13T18:37:39.056Z,19.83
2023-05-13T18:40:09.988Z,17.60
2023-05-13T18:42:38.936Z,17.08
2023-05-13T18:45:11.532Z,14.32
2023-05-13T18:47:40.551Z,38.92
2023-05-13T18:50:10.272Z,21.38
2023-05-13T18:52:40.236Z,33.00
2023-05-13T18:55:12.970Z,21.40
2023-05-13T18:57:41.976Z,18.38
2023-05-13T19:00:13.630Z,16.02
2023-05-13T19:02:42.654Z,16.02
2023-05-13T19:05:11.965Z,15.30
2023-05-13T19:07:40.985Z,17.42
2023-05-13T19:10:10.116Z,16.05
2023-05-13T19:12:38.849Z,16.30
2023-05-13T19:15:09.230Z,16.98
2023-05-13T19:17:41.155Z,16.98
2023-05-13T19:20:11.846Z,16.70
2023-05-13T19:22:40.755Z,16.55
2023-05-13T19:25:11.068Z,17.52
2023-05-13T19:27:40.306Z,16.65
2023-05-13T19:30:11.230Z,17.00
2023-05-13T19:32:41.537Z,16.02
2023-05-13T19:35:11.693Z,16.73
2023-05-13T19:37:40.617Z,16.65
2023-05-13T19:40:11.013Z,58.67
2023-05-13T19:42:39.874Z,18.83
2023-05-13T19:45:10.818Z,18.17
2023-05-13T19:47:41.842Z,18.15
2023-05-13T19:50:11.238Z,16.30
2023-05-13T19:52:40.689Z,16.20
2023-05-13T19:55:10.962Z,14.57
2023-05-13T19:57:43.123Z,14.43
2023-05-13T20:00:14.375Z,16.40
2023-05-13T20:02:44.717Z,15.77
2023-05-13T20:05:13.594Z,16.15
2023-05-13T20:07:42.535Z,16.98
2023-05-13T20:10:12.517Z,16.83
2023-05-13T20:12:41.599Z,17.40
2023-05-13T20:15:11.615Z,16.08
2023-05-13T20:17:41.086Z,15.43
2023-05-13T20:20:12.838Z,14.55
2023-05-13T20:22:41.645Z,15.43
2023-05-13T20:25:11.602Z,14.90
2023-05-13T20:27:40.495Z,14.15
2023-05-13T20:30:11.482Z,16.75
2023-05-13T20:32:40.450Z,15.43
2023-05-13T20:35:11.728Z,15.05
2023-05-13T20:37:40.592Z,15.75
2023-05-13T20:40:10.945Z,16.48
2023-05-13T20:42:39.874Z,15.50
2023-05-13T20:45:10.516Z,15.60
2023-05-13T20:47:53.090Z,16.98
2023-05-13T20:50:27.166Z,16.38
2023-05-13T20:53:25.666Z,15.95
2023-05-13T20:56:06.275Z,15.98
2023-05-13T20:58:56.095Z,15.65
2023-05-13T21:01:32.210Z,15.52
2023-05-13T21:04:12.133Z,15.85
2023-05-13T21:06:57.570Z,15.13
2023-05-13T21:09:39.784Z,15.77
2023-05-13T21:12:22.668Z,14.73
2023-05-13T21:15:21.485Z,14.55
2023-05-13T21:17:52.025Z,14.02
2023-05-13T21:20:29.246Z,14.98
2023-05-13T21:23:30.580Z,15.40
2023-05-13T21:26:21.099Z,14.65
2023-05-13T21:29:18.039Z,14.43
2023-05-13T21:32:20.915Z,16.20
2023-05-13T21:35:15.498Z,16.92
2023-05-13T21:41:19.453Z,13.82
2023-05-13T21:44:03.542Z,15.20
2023-05-13T21:46:55.590Z,14.23
2023-05-13T21:49:30.728Z,15.05
2023-05-13T21:52:02.145Z,15.30
2023-05-13T21:54:39.847Z,14.88
2023-05-13T21:57:11.906Z,13.90
2023-05-13T21:59:56.928Z,15.07
2023-05-13T22:02:43.698Z,14.40
2023-05-13T22:05:25.091Z,14.75
2023-05-13T22:08:01.901Z,14.93
2023-05-13T22:10:48.701Z,15.70
2023-05-13T22:13:17.524Z,15.10
2023-05-13T22:15:46.193Z,14.85
2023-05-13T22:18:16.149Z,13.90
2023-05-13T22:20:44.844Z,14.20
2023-05-13T22:23:13.606Z,13.93
2023-05-13T22:25:43.754Z,14.77
2023-05-13T22:28:12.442Z,14.57
2023-05-13T22:30:41.205Z,13.80
2023-05-13T22:33:09.987Z,13.10
2023-05-13T22:35:39.594Z,13.82
2023-05-13T22:38:08.399Z,13.18
2023-05-13T22:40:38.419Z,12.80
2023-05-13T22:43:08.600Z,12.75
2023-05-13T22:45:38.663Z,12.93
2023-05-13T22:48:08.169Z,13.10
2023-05-13T22:50:37.027Z,12.02
2023-05-13T22:53:05.983Z,11.57
2023-05-13T22:55:34.780Z,10.98
2023-05-13T22:58:03.518Z,12.27
2023-05-13T23:00:33.645Z,11.13
2023-05-13T23:03:02.481Z,11.32
2023-05-13T23:05:31.221Z,11.95
2023-05-13T23:07:59.914Z,11.70
2023-05-13T23:10:28.642Z,12.35
2023-05-13T23:12:57.338Z,10.88
2023-05-13T23:15:26.601Z,11.85
2023-05-13T23:17:56.830Z,10.13
2023-05-13T23:20:25.731Z,10.20
2023-05-13T23:22:55.370Z,10.00
2023-05-13T23:25:24.030Z,10.32
2023-05-13T23:27:53.141Z,9.65
2023-05-13T23:30:22.737Z,9.27
2023-05-13T23:32:51.664Z,9.82
2023-05-13T23:35:21.844Z,8.95
2023-05-13T23:37:50.506Z,9.27
2023-05-13T23:40:19.634Z,9.77
2023-05-13T23:42:48.287Z,9.43
2023-05-13T23:45:17.214Z,9.02
2023-05-13T23:47:45.952Z,10.23
2023-05-13T23:50:14.731Z,9.55
2023-05-13T23:52:44.821Z,7.95
2023-05-13T23:55:13.739Z,9.05
2023-05-13T23:57:42.444Z,8.13
